Time;durP1;ratioP1;P1;durP2;ratioP2;P2;SDS_P1;SDS_P2;PMS_P1;PMS_P2;Temp;Humidity;BMP_temperature;BMP_pressure;BME280_temperature;BME280_humidity;BME280_pressure;Samples;Min_cycle;Max_cycle;Signal;HPM_P1;HPM_P2
2023/09/23 00:01:45;;;;;;;1.63;0.77;;;14.20;99.90;;;;;;5045588;28;20072;-18
2023/09/23 00:04:11;;;;;;;1.00;0.70;;;14.20;99.90;;;;;;5035646;28;20824;-18
2023/09/23 00:06:37;;;;;;;1.13;0.80;;;14.10;99.90;;;;;;5028011;28;20733;-18
2023/09/23 00:09:04;;;;;;;1.92;0.70;;;14.20;99.90;;;;;;5028695;28;20458;-18
2023/09/23 00:11:30;;;;;;;0.97;0.60;;;14.10;99.90;;;;;;5047985;28;20120;-18
2023/09/23 00:13:56;;;;;;;1.73;0.80;;;13.50;99.90;;;;;;5028541;28;20033;-18
2023/09/23 00:16:22;;;;;;;1.35;0.60;;;14.10;99.90;;;;;;5027556;28;20526;-18
2023/09/23 00:18:48;;;;;;;2.05;0.70;;;14.10;99.90;;;;;;5039517;28;20499;-18
2023/09/23 00:21:13;;;;;;;1.30;0.60;;;14.10;99.90;;;;;;5032885;28;20028;-18
2023/09/23 00:23:40;;;;;;;1.15;0.70;;;14.10;99.90;;;;;;5045626;28;20210;-18
2023/09/23 00:26:10;;;;;;;1.52;0.73;;;14.10;99.90;;;;;;5047252;28;20021;-16
2023/09/23 00:28:36;;;;;;;1.40;0.70;;;14.10;99.90;;;;;;5043600;28;20028;-16
2023/09/23 00:31:14;;;;;;;1.10;0.77;;;14.10;99.90;;;;;;4995497;28;20032;-16
2023/09/23 00:33:44;;;;;;;2.10;0.90;;;14.40;99.90;;;;;;5030475;28;20472;-16
2023/09/23 00:36:10;;;;;;;1.60;0.65;;;14.10;99.90;;;;;;5013328;28;20033;-16
2023/09/23 00:38:37;;;;;;;1.15;0.60;;;14.10;99.90;;;;;;5011877;28;20021;-16
2023/09/23 00:41:04;;;;;;;1.52;0.80;;;14.10;99.90;;;;;;5032329;28;20033;-16
2023/09/23 00:43:32;;;;;;;1.20;0.60;;;13.00;99.90;;;;;;5032676;28;20037;-16
2023/09/23 00:45:59;;;;;;;1.42;0.63;;;14.10;99.90;;;;;;5023783;28;20515;-16
2023/09/23 00:48:26;;;;;;;1.52;0.60;;;14.10;99.90;;;;;;5042763;28;20162;-15
2023/09/23 00:50:54;;;;;;;1.13;0.60;;;14.10;99.90;;;;;;5024197;28;20492;-15
2023/09/23 00:53:21;;;;;;;1.80;0.70;;;14.10;99.90;;;;;;5029384;28;20454;-16
2023/09/23 00:55:52;;;;;;;1.03;0.63;;;13.70;99.90;;;;;;5046501;28;20033;-16
2023/09/23 00:58:21;;;;;;;1.48;0.60;;;14.10;99.90;;;;;;5043457;28;20025;-16
2023/09/23 01:00:49;;;;;;;2.00;0.93;;;14.10;99.90;;;;;;5045497;28;20028;-16
2023/09/23 01:03:18;;;;;;;1.35;0.60;;;14.00;99.90;;;;;;5015162;28;20116;-16
2023/09/23 01:05:45;;;;;;;1.85;0.80;;;14.10;99.90;;;;;;5036401;28;20054;-16
2023/09/23 01:08:12;;;;;;;1.20;0.67;;;14.00;99.90;;;;;;5029506;28;20075;-16
2023/09/23 01:10:38;;;;;;;1.10;0.60;;;14.00;99.90;;;;;;5044086;28;20047;-16
2023/09/23 01:13:07;;;;;;;0.70;0.60;;;14.00;99.90;;;;;;5027345;28;20028;-16
2023/09/23 01:15:40;;;;;;;1.13;0.50;;;14.00;99.90;;;;;;5046697;28;20210;-16
2023/09/23 01:18:13;;;;;;;1.55;0.85;;;14.00;99.90;;;;;;5023663;28;20430;-16
2023/09/23 01:20:41;;;;;;;1.07;0.73;;;13.90;99.90;;;;;;5054709;28;20074;-16
2023/09/23 01:23:09;;;;;;;1.77;0.82;;;13.90;99.90;;;;;;5020126;28;20044;-16
2023/09/23 01:25:36;;;;;;;2.15;0.75;;;13.90;99.90;;;;;;5044795;28;20329;-16
2023/09/23 01:28:04;;;;;;;2.80;0.70;;;13.90;99.90;;;;;;5052320;28;21831;-16
2023/09/23 01:30:30;;;;;;;2.58;0.70;;;13.90;99.90;;;;;;5054804;28;20074;-16
2023/09/23 01:32:56;;;;;;;1.63;0.70;;;13.90;99.90;;;;;;5025326;28;20155;-16
2023/09/23 01:35:22;;;;;;;1.50;0.75;;;13.90;99.90;;;;;;5048306;28;20029;-19
2023/09/23 01:37:50;;;;;;;1.00;0.68;;;13.90;99.90;;;;;;5053692;28;20029;-18
2023/09/23 01:40:19;;;;;;;1.43;0.60;;;13.90;99.90;;;;;;5025193;28;20435;-18
2023/09/23 01:42:48;;;;;;;1.10;0.60;;;13.90;99.90;;;;;;5040611;28;20035;-18
2023/09/23 01:45:15;;;;;;;2.33;0.90;;;13.90;99.90;;;;;;5046958;28;20037;-18
2023/09/23 01:47:41;;;;;;;1.00;0.68;;;13.80;99.90;;;;;;5028626;28;20044;-18
2023/09/23 01:50:09;;;;;;;1.80;0.77;;;13.80;99.90;;;;;;5047040;28;20036;-18
2023/09/23 01:52:36;;;;;;;1.30;0.60;;;13.80;99.90;;;;;;5049399;28;20468;-18
2023/09/23 01:55:06;;;;;;;1.35;0.65;;;13.80;99.90;;;;;;5026529;28;20151;-18
2023/09/23 01:57:35;;;;;;;1.80;1.02;;;13.80;99.90;;;;;;5025839;28;20117;-16
2023/09/23 02:00:01;;;;;;;3.42;0.80;;;13.80;99.90;;;;;;5050250;28;20104;-16
2023/09/23 02:02:27;;;;;;;2.72;0.90;;;13.80;99.90;;;;;;5050525;28;20055;-16
2023/09/23 02:04:53;;;;;;;1.13;0.70;;;13.80;99.90;;;;;;5025728;28;20481;-16
2023/09/23 02:07:19;;;;;;;1.23;0.68;;;13.80;99.90;;;;;;5047381;28;20676;-16
2023/09/23 02:09:48;;;;;;;1.58;0.82;;;13.80;99.90;;;;;;5045055;28;20025;-16
2023/09/23 02:12:14;;;;;;;1.30;0.65;;;13.70;99.90;;;;;;5031367;28;20044;-16
2023/09/23 02:14:40;;;;;;;1.33;0.67;;;13.70;99.90;;;;;;5053972;28;20395;-15
2023/09/23 02:17:06;;;;;;;1.70;0.80;;;13.70;99.90;;;;;;5050281;28;20462;-16
2023/09/23 02:19:32;;;;;;;1.15;0.88;;;13.70;99.90;;;;;;5028119;28;20688;-16
2023/09/23 02:21:58;;;;;;;0.97;0.60;;;13.20;99.90;;;;;;5048657;28;20040;-16
2023/09/23 02:24:24;;;;;;;1.77;0.80;;;13.70;99.90;;;;;;5031330;28;20618;-16
2023/09/23 02:26:49;;;;;;;1.30;0.63;;;13.70;99.90;;;;;;5037157;28;20039;-16
2023/09/23 02:29:16;;;;;;;1.43;0.60;;;13.70;99.90;;;;;;5045847;28;20626;-16
2023/09/23 02:31:46;;;;;;;1.02;0.77;;;13.70;99.90;;;;;;5040768;28;20037;-16
2023/09/23 02:34:16;;;;;;;2.03;0.73;;;13.70;99.90;;;;;;5021112;28;21684;-16
2023/09/23 02:36:46;;;;;;;2.03;0.80;;;13.70;99.90;;;;;;5041479;28;20237;-16
2023/09/23 02:39:16;;;;;;;1.20;0.63;;;13.70;99.90;;;;;;5051261;28;20086;-16
2023/09/23 02:41:45;;;;;;;2.28;0.77;;;13.70;99.90;;;;;;5032636;28;20043;-16
2023/09/23 02:44:20;;;;;;;0.75;0.60;;;13.70;99.90;;;;;;5041073;28;20032;-16
2023/09/23 02:46:49;;;;;;;1.05;0.70;;;13.70;99.90;;;;;;5043067;28;20033;-16
2023/09/23 02:49:16;;;;;;;1.37;0.93;;;13.70;99.90;;;;;;5031007;28;20036;-16
2023/09/23 02:51:42;;;;;;;1.20;0.77;;;13.70;99.90;;;;;;5019507;28;20024;-16
2023/09/23 02:54:11;;;;;;;1.20;0.60;;;13.60;99.90;;;;;;5037299;28;20063;-16
2023/09/23 02:56:37;;;;;;;1.52;0.60;;;13.70;99.90;;;;;;5026402;28;20586;-16
2023/09/23 02:59:13;;;;;;;1.13;0.82;;;13.70;99.90;;;;;;5044372;28;20083;-16
2023/09/23 03:01:45;;;;;;;1.80;0.70;;;13.60;99.90;;;;;;5028117;28;20558;-16
2023/09/23 03:04:23;;;;;;;1.55;0.70;;;13.60;99.90;;;;;;5016911;28;20553;-16
2023/09/23 03:07:01;;;;;;;0.80;0.70;;;13.30;99.90;;;;;;5017886;28;20033;-16
2023/09/23 03:09:32;;;;;;;2.33;0.88;;;13.60;99.90;;;;;;5038369;28;20151;-16
2023/09/23 03:12:00;;;;;;;1.75;0.70;;;13.60;99.90;;;;;;5036083;28;20055;-16
2023/09/23 03:14:36;;;;;;;1.00;0.70;;;13.60;99.90;;;;;;5031394;28;20273;-16
2023/09/23 03:17:03;;;;;;;1.55;0.65;;;13.60;99.90;;;;;;5042240;28;20032;-16
2023/09/23 03:19:32;;;;;;;0.70;0.60;;;13.60;99.90;;;;;;5033063;28;20151;-16
2023/09/23 03:21:58;;;;;;;0.82;0.65;;;13.60;99.90;;;;;;5020253;28;20036;-16
2023/09/23 03:24:25;;;;;;;1.60;0.77;;;13.60;99.90;;;;;;5039601;28;20649;-16
2023/09/23 03:26:53;;;;;;;1.87;0.70;;;13.50;99.90;;;;;;5035083;28;20059;-16
2023/09/23 03:29:19;;;;;;;1.38;0.70;;;13.50;99.90;;;;;;5023781;28;20616;-16
2023/09/23 03:31:45;;;;;;;2.28;0.70;;;13.50;99.90;;;;;;5037939;28;20212;-16
2023/09/23 03:34:14;;;;;;;1.50;0.70;;;13.50;99.90;;;;;;5033580;28;20040;-16
2023/09/23 03:36:41;;;;;;;2.03;0.87;;;15.20;99.90;;;;;;5024908;28;20074;-16
2023/09/23 03:39:08;;;;;;;2.05;0.70;;;13.50;99.90;;;;;;5032254;28;20028;-16
2023/09/23 03:41:37;;;;;;;1.20;0.80;;;13.40;99.90;;;;;;5035344;28;20028;-16
2023/09/23 03:44:07;;;;;;;1.85;0.90;;;13.40;99.90;;;;;;5030600;28;20217;-16
2023/09/23 03:46:33;;;;;;;2.30;0.80;;;13.30;99.90;;;;;;5040293;28;20643;-16
2023/09/23 03:49:00;;;;;;;1.40;0.80;;;13.40;99.90;;;;;;5023679;28;20296;-16
2023/09/23 03:51:26;;;;;;;2.55;0.80;;;13.40;99.90;;;;;;5034244;28;20025;-16
2023/09/23 03:53:52;;;;;;;1.75;0.80;;;13.40;99.90;;;;;;5014499;28;20970;-16
2023/09/23 03:56:24;;;;;;;3.23;0.80;;;13.40;99.90;;;;;;5030461;28;20241;-16
2023/09/23 03:58:57;;;;;;;1.83;0.82;;;13.30;99.90;;;;;;5041454;28;20044;-16
2023/09/23 04:01:24;;;;;;;1.83;0.90;;;13.30;99.90;;;;;;5033605;28;21018;-16
2023/09/23 04:03:53;;;;;;;2.58;0.90;;;13.30;99.90;;;;;;5024757;28;20051;-16
2023/09/23 04:06:19;;;;;;;1.00;0.75;;;13.30;99.90;;;;;;5032254;28;20389;-16
2023/09/23 04:08:46;;;;;;;1.40;0.83;;;13.30;99.90;;;;;;5019547;28;20043;-16
2023/09/23 04:11:15;;;;;;;1.92;0.93;;;13.30;99.90;;;;;;5029979;28;20025;-16
2023/09/23 04:13:47;;;;;;;1.92;0.70;;;13.40;99.90;;;;;;5044337;28;20063;-16
2023/09/23 04:16:13;;;;;;;1.80;0.93;;;13.30;99.90;;;;;;5025797;28;20452;-16
2023/09/23 04:18:40;;;;;;;1.45;0.73;;;13.30;99.90;;;;;;5042861;28;20178;-16
2023/09/23 04:21:08;;;;;;;3.80;0.83;;;13.30;99.90;;;;;;5033431;28;20608;-16
2023/09/23 04:23:34;;;;;;;1.20;0.90;;;13.30;99.90;;;;;;5038339;28;20029;-16
2023/09/23 04:26:02;;;;;;;1.42;0.75;;;13.30;99.90;;;;;;5018265;28;20545;-16
2023/09/23 04:28:29;;;;;;;2.17;1.00;;;13.30;99.90;;;;;;5031524;28;20434;-16
2023/09/23 04:30:55;;;;;;;2.53;1.25;;;13.30;99.90;;;;;;5039209;28;20036;-16
2023/09/23 04:33:23;;;;;;;2.10;1.00;;;13.30;99.90;;;;;;5030905;28;20032;-16
2023/09/23 04:35:49;;;;;;;1.85;0.90;;;13.30;99.90;;;;;;5038350;28;20036;-16
2023/09/23 04:38:15;;;;;;;2.65;0.90;;;13.30;99.90;;;;;;5028909;28;20074;-16
2023/09/23 04:40:42;;;;;;;2.72;1.10;;;13.30;99.90;;;;;;5018174;28;20048;-16
2023/09/23 04:43:10;;;;;;;3.97;1.60;;;13.30;99.90;;;;;;5030869;28;20041;-16
2023/09/23 04:45:36;;;;;;;1.90;1.13;;;13.30;99.90;;;;;;5042260;28;20024;-16
2023/09/23 04:48:04;;;;;;;2.20;1.10;;;13.30;99.90;;;;;;5031154;28;20024;-16
2023/09/23 04:50:30;;;;;;;3.45;1.55;;;13.30;99.90;;;;;;5041748;28;20055;-16
2023/09/23 04:52:55;;;;;;;2.47;0.93;;;12.80;99.90;;;;;;5042227;28;20047;-16
2023/09/23 04:55:22;;;;;;;1.40;1.00;;;13.30;99.90;;;;;;5014448;28;20790;-16
2023/09/23 04:57:48;;;;;;;2.78;1.00;;;13.30;99.90;;;;;;5058947;28;20054;-16
2023/09/23 05:00:20;;;;;;;2.22;1.00;;;13.30;99.90;;;;;;5030657;28;20031;-16
2023/09/23 05:02:49;;;;;;;1.48;1.10;;;13.30;99.90;;;;;;5018246;28;20261;-16
2023/09/23 05:05:15;;;;;;;2.10;1.20;;;13.30;99.90;;;;;;5028027;28;20754;-16
2023/09/23 05:07:41;;;;;;;1.92;1.30;;;13.20;99.90;;;;;;5026655;28;20496;-16
2023/09/23 05:10:07;;;;;;;1.88;1.02;;;13.30;99.90;;;;;;5040891;28;20072;-16
2023/09/23 05:12:33;;;;;;;2.65;1.10;;;13.30;99.90;;;;;;5013632;28;20050;-16
2023/09/23 05:15:00;;;;;;;1.98;0.95;;;13.30;99.90;;;;;;5016640;28;20116;-16
2023/09/23 05:17:28;;;;;;;1.93;1.20;;;13.30;99.90;;;;;;5036020;28;20036;-16
2023/09/23 05:19:54;;;;;;;1.73;1.02;;;13.30;99.90;;;;;;5033572;28;20993;-16
2023/09/23 05:22:20;;;;;;;1.48;1.00;;;13.30;99.90;;;;;;5055350;28;20409;-16
2023/09/23 05:24:50;;;;;;;1.60;1.00;;;13.30;99.90;;;;;;5022083;28;20068;-16
2023/09/23 05:27:16;;;;;;;5.40;1.40;;;13.30;99.90;;;;;;5009884;28;20040;-18
2023/09/23 05:29:44;;;;;;;2.20;1.13;;;13.10;99.90;;;;;;4998557;28;20300;-18
2023/09/23 05:32:10;;;;;;;2.15;1.20;;;13.20;99.90;;;;;;5041199;28;21179;-18
2023/09/23 05:34:39;;;;;;;1.90;1.08;;;13.30;99.90;;;;;;5027912;28;20111;-18
2023/09/23 05:37:06;;;;;;;2.42;1.00;;;13.10;99.90;;;;;;5039762;28;20024;-18
2023/09/23 05:39:34;;;;;;;1.40;0.90;;;13.30;99.90;;;;;;5026113;28;20142;-18
2023/09/23 05:42:02;;;;;;;1.75;0.88;;;13.30;99.90;;;;;;5017157;28;20028;-18
2023/09/23 05:44:28;;;;;;;3.75;1.30;;;13.30;99.90;;;;;;5026477;28;20262;-18
2023/09/23 05:46:53;;;;;;;2.90;1.00;;;13.30;99.90;;;;;;5025818;28;20024;-18
2023/09/23 05:49:19;;;;;;;1.27;0.97;;;13.30;99.90;;;;;;5011087;28;20052;-18
2023/09/23 05:51:45;;;;;;;2.35;1.30;;;13.20;99.90;;;;;;5038025;28;20021;-18
2023/09/23 05:54:11;;;;;;;1.60;0.90;;;13.30;99.90;;;;;;5008585;28;20056;-18
2023/09/23 05:56:38;;;;;;;2.03;0.90;;;13.30;99.90;;;;;;4998229;28;20082;-18
2023/09/23 05:59:05;;;;;;;1.80;1.20;;;13.30;99.90;;;;;;5031648;28;20029;-18
2023/09/23 06:01:33;;;;;;;3.85;1.58;;;13.30;99.90;;;;;;5030452;28;20036;-18
2023/09/23 06:03:59;;;;;;;2.45;1.10;;;13.30;99.90;;;;;;5029407;28;20432;-19
2023/09/23 06:06:25;;;;;;;1.53;1.00;;;12.20;99.90;;;;;;5043754;28;20071;-18
2023/09/23 06:08:51;;;;;;;3.50;1.23;;;13.30;99.90;;;;;;5028164;28;22841;-19
2023/09/23 06:11:17;;;;;;;2.13;1.23;;;13.30;99.90;;;;;;5035548;28;20062;-19
2023/09/23 06:13:43;;;;;;;2.77;1.20;;;13.30;99.90;;;;;;5013453;28;20074;-18
2023/09/23 06:16:09;;;;;;;1.40;0.90;;;13.30;99.90;;;;;;5036659;28;20491;-18
2023/09/23 06:18:35;;;;;;;4.38;1.13;;;13.30;99.90;;;;;;5042229;28;20115;-18
2023/09/23 06:21:01;;;;;;;1.47;1.00;;;13.90;99.90;;;;;;5019700;28;20032;-18
2023/09/23 06:23:27;;;;;;;1.98;1.20;;;13.40;99.90;;;;;;5041597;28;20446;-19
2023/09/23 06:25:54;;;;;;;2.03;1.20;;;13.40;99.90;;;;;;5028625;28;20274;-18
2023/09/23 06:28:24;;;;;;;2.25;1.35;;;13.40;99.90;;;;;;5043660;28;21121;-19
2023/09/23 06:30:51;;;;;;;1.90;1.10;;;13.40;99.90;;;;;;5007278;28;20070;-18
2023/09/23 06:33:16;;;;;;;2.72;1.10;;;13.50;99.90;;;;;;5037785;28;20229;-19
2023/09/23 06:35:43;;;;;;;3.05;1.20;;;13.50;99.90;;;;;;5033131;28;20399;-19
2023/09/23 06:38:09;;;;;;;2.05;1.30;;;13.50;99.90;;;;;;5026273;28;20032;-19
2023/09/23 06:40:34;;;;;;;2.40;1.20;;;13.50;99.90;;;;;;5032562;28;20016;-19
2023/09/23 06:43:00;;;;;;;2.70;1.40;;;13.60;99.90;;;;;;5042764;28;20024;-18
2023/09/23 06:45:26;;;;;;;1.63;1.02;;;13.60;99.90;;;;;;5010710;28;20127;-19
2023/09/23 06:47:52;;;;;;;2.97;1.20;;;13.60;99.90;;;;;;5044503;28;20024;-19
2023/09/23 06:50:18;;;;;;;3.45;1.20;;;13.70;99.90;;;;;;5025934;28;20196;-19
2023/09/23 06:52:44;;;;;;;3.08;1.25;;;13.70;99.90;;;;;;5040833;28;20057;-19
2023/09/23 06:55:10;;;;;;;2.10;1.30;;;13.80;99.90;;;;;;5032629;28;20047;-19
2023/09/23 06:57:35;;;;;;;2.40;1.23;;;13.80;99.90;;;;;;5039386;28;20040;-19
2023/09/23 07:00:07;;;;;;;2.50;1.30;;;13.90;99.90;;;;;;5028751;28;20041;-19
2023/09/23 07:02:33;;;;;;;3.13;1.13;;;14.00;99.90;;;;;;5030283;28;20527;-19
2023/09/23 07:05:00;;;;;;;1.95;0.95;;;14.00;99.90;;;;;;5039807;28;20511;-18
2023/09/23 07:07:26;;;;;;;2.05;1.13;;;14.10;99.90;;;;;;5030948;28;20051;-19
2023/09/23 07:09:52;;;;;;;2.00;1.25;;;14.10;99.90;;;;;;5039483;28;20055;-19
2023/09/23 07:12:17;;;;;;;1.93;1.13;;;14.20;99.90;;;;;;5023902;28;20139;-19
2023/09/23 07:14:43;;;;;;;2.05;1.23;;;14.30;99.90;;;;;;5041611;28;20097;-19
2023/09/23 07:17:09;;;;;;;2.42;1.30;;;14.40;99.90;;;;;;4994446;28;20557;-19
2023/09/23 07:19:35;;;;;;;2.23;1.20;;;14.50;99.90;;;;;;5039935;28;20025;-19
2023/09/23 07:22:01;;;;;;;1.20;0.90;;;14.60;99.90;;;;;;5037830;28;20083;-19
2023/09/23 07:24:27;;;;;;;2.13;1.10;;;14.70;99.90;;;;;;5031209;28;20147;-19
2023/09/23 07:26:59;;;;;;;3.07;1.20;;;14.80;99.90;;;;;;5028658;28;20028;-19
2023/09/23 07:29:26;;;;;;;2.22;1.13;;;15.00;99.90;;;;;;5043200;28;20025;-19
2023/09/23 07:31:53;;;;;;;2.70;1.08;;;15.20;99.90;;;;;;5023344;28;20288;-19
2023/09/23 07:34:19;;;;;;;2.25;1.00;;;15.60;99.90;;;;;;5049479;28;20035;-19
2023/09/23 07:36:46;;;;;;;2.85;1.10;;;15.80;99.90;;;;;;5047551;28;20048;-20
2023/09/23 07:39:12;;;;;;;2.10;1.10;;;16.20;99.90;;;;;;5042492;28;20055;-20
2023/09/23 07:41:38;;;;;;;2.08;1.10;;;16.50;99.90;;;;;;5033645;28;20189;-20
2023/09/23 07:44:05;;;;;;;2.50;1.10;;;16.70;99.90;;;;;;5047306;28;20017;-20
2023/09/23 07:46:31;;;;;;;2.08;1.13;;;17.20;99.90;;;;;;5022898;28;20071;-19
2023/09/23 07:48:56;;;;;;;2.30;1.20;;;17.50;99.90;;;;;;5049647;28;20444;-17
2023/09/23 07:51:22;;;;;;;3.73;1.30;;;17.80;99.90;;;;;;5034187;28;20620;-18
2023/09/23 07:53:50;;;;;;;1.98;1.00;;;18.00;99.90;;;;;;5042501;28;20033;-18
2023/09/23 07:56:16;;;;;;;2.45;1.10;;;18.30;99.90;;;;;;5047970;28;20349;-17
2023/09/23 07:58:42;;;;;;;1.47;0.80;;;18.50;99.90;;;;;;5038812;28;20206;-18
2023/09/23 08:01:08;;;;;;;1.30;0.98;;;18.70;99.90;;;;;;5004786;28;20111;-18
2023/09/23 08:03:33;;;;;;;1.77;0.90;;;18.90;99.90;;;;;;5031085;28;20629;-18
2023/09/23 08:05:59;;;;;;;1.63;0.80;;;19.10;99.90;;;;;;5049931;28;20492;-18
2023/09/23 08:08:25;;;;;;;1.13;0.90;;;19.30;99.90;;;;;;5036593;28;20423;-19
2023/09/23 08:10:51;;;;;;;2.10;1.02;;;19.50;99.90;;;;;;5039341;28;20089;-19
2023/09/23 08:13:19;;;;;;;2.88;1.10;;;19.70;99.90;;;;;;5036499;28;20021;-19
2023/09/23 08:15:45;;;;;;;1.80;0.80;;;20.40;99.90;;;;;;5046950;28;20640;-18
2023/09/23 08:18:12;;;;;;;1.88;0.90;;;20.00;99.90;;;;;;5024117;28;20093;-19
2023/09/23 08:20:39;;;;;;;2.67;1.00;;;20.10;99.90;;;;;;5033331;28;20675;-19
2023/09/23 08:23:06;;;;;;;1.90;0.90;;;20.10;99.90;;;;;;5048219;28;20038;-19
2023/09/23 08:25:32;;;;;;;1.00;0.73;;;20.10;99.90;;;;;;5024193;28;20165;-20
2023/09/23 08:27:58;;;;;;;1.50;0.90;;;19.90;99.90;;;;;;5038061;28;20055;-19
2023/09/23 08:30:25;;;;;;;2.10;0.90;;;20.00;99.90;;;;;;5032354;28;20020;-19
2023/09/23 08:32:50;;;;;;;1.38;1.08;;;20.00;99.90;;;;;;5006263;28;20051;-19
2023/09/23 08:35:16;;;;;;;1.77;1.00;;;20.10;99.90;;;;;;5047681;28;20387;-19
2023/09/23 08:37:45;;;;;;;2.10;0.83;;;20.30;99.90;;;;;;5047504;28;20538;-20
2023/09/23 08:40:12;;;;;;;2.05;1.00;;;20.50;99.90;;;;;;5040404;28;20025;-20
2023/09/23 08:42:39;;;;;;;1.63;0.90;;;20.70;99.90;;;;;;5019906;28;20575;-21
2023/09/23 08:45:08;;;;;;;3.00;1.10;;;20.90;99.90;;;;;;5036810;28;20403;-20
2023/09/23 08:47:38;;;;;;;3.33;1.00;;;21.00;99.90;;;;;;5019116;28;20068;-20
2023/09/23 08:50:08;;;;;;;1.40;1.00;;;21.20;99.90;;;;;;5052537;28;20047;-20
2023/09/23 08:52:34;;;;;;;2.55;1.00;;;21.30;99.90;;;;;;5034776;28;20806;-21
2023/09/23 08:55:01;;;;;;;1.60;1.00;;;21.50;99.90;;;;;;5039271;28;20079;-21
2023/09/23 08:57:29;;;;;;;2.90;1.00;;;21.70;99.90;;;;;;5036918;28;20467;-19
2023/09/23 08:59:55;;;;;;;1.97;1.00;;;21.90;99.90;;;;;;5035838;28;20478;-19
2023/09/23 09:02:27;;;;;;;2.40;0.90;;;22.10;99.90;;;;;;5049371;28;20028;-22
2023/09/23 09:04:54;;;;;;;2.75;0.90;;;22.30;99.90;;;;;;5011939;28;20033;-20
2023/09/23 09:07:24;;;;;;;1.77;0.80;;;22.40;99.90;;;;;;5044494;28;20035;-20
2023/09/23 09:09:49;;;;;;;1.97;0.90;;;22.50;99.90;;;;;;5038315;28;20459;-19
2023/09/23 09:12:16;;;;;;;3.38;1.08;;;22.70;99.90;;;;;;5025728;28;20093;-19
2023/09/23 09:14:42;;;;;;;3.40;1.10;;;22.90;99.90;;;;;;5034586;28;20028;-19
2023/09/23 09:17:09;;;;;;;2.38;1.10;;;23.10;99.90;;;;;;5030219;28;20021;-20
2023/09/23 09:19:38;;;;;;;2.07;0.97;;;23.40;99.90;;;;;;5026968;28;20488;-20
2023/09/23 09:22:04;;;;;;;3.50;1.20;;;23.60;99.90;;;;;;5026498;28;20107;-19
2023/09/23 09:24:30;;;;;;;2.13;0.90;;;23.80;99.90;;;;;;5045299;28;20862;-19
2023/09/23 09:26:55;;;;;;;3.07;0.90;;;24.10;99.90;;;;;;5049957;28;20028;-20
2023/09/23 09:29:21;;;;;;;1.98;1.02;;;24.30;99.90;;;;;;5047665;28;20249;-20
2023/09/23 09:31:51;;;;;;;2.13;1.10;;;24.50;99.90;;;;;;5036161;28;20511;-20
2023/09/23 09:34:23;;;;;;;2.03;1.03;;;24.60;99.90;;;;;;5042431;28;20302;-19
2023/09/23 09:36:54;;;;;;;2.67;1.00;;;24.60;99.90;;;;;;5025589;28;20025;-19
2023/09/23 09:39:24;;;;;;;2.03;1.10;;;24.60;99.90;;;;;;5046782;28;20126;-20
2023/09/23 09:41:54;;;;;;;1.92;1.20;;;24.50;99.90;;;;;;5042889;28;20438;-19
2023/09/23 09:44:23;;;;;;;2.22;0.90;;;24.50;99.90;;;;;;5051232;28;20028;-19
2023/09/23 09:46:51;;;;;;;2.57;1.30;;;24.30;99.90;;;;;;5035600;28;20028;-20
2023/09/23 09:49:17;;;;;;;1.75;1.20;;;24.20;99.90;;;;;;5033982;28;20230;-20
2023/09/23 09:51:48;;;;;;;3.38;1.00;;;24.00;99.90;;;;;;5024969;28;20036;-20
2023/09/23 09:54:18;;;;;;;2.22;1.30;;;23.90;99.90;;;;;;5050552;28;20374;-21
2023/09/23 09:56:47;;;;;;;1.55;1.08;;;23.90;99.90;;;;;;5051004;28;20105;-20
2023/09/23 09:59:30;;;;;;;2.77;1.20;;;23.80;99.90;;;;;;5035312;28;20074;-20
2023/09/23 10:01:57;;;;;;;1.85;1.20;;;23.80;99.90;;;;;;5058162;28;20029;-20
2023/09/23 10:04:23;;;;;;;3.03;1.23;;;23.80;99.90;;;;;;5033865;28;20424;-21
2023/09/23 10:06:56;;;;;;;2.38;1.20;;;23.70;99.90;;;;;;5027165;28;20562;-20
2023/09/23 10:09:27;;;;;;;3.28;1.30;;;23.60;99.90;;;;;;5049222;28;20028;-19
2023/09/23 10:11:54;;;;;;;2.50;1.37;;;23.60;99.90;;;;;;5053675;28;20028;-19
2023/09/23 10:14:20;;;;;;;3.25;1.45;;;23.70;99.90;;;;;;5037718;28;20297;-19
2023/09/23 10:16:51;;;;;;;2.45;1.33;;;23.90;99.90;;;;;;5051889;28;20399;-19
2023/09/23 10:19:28;;;;;;;2.90;1.30;;;24.10;99.90;;;;;;5034181;28;20264;-20
2023/09/23 10:22:08;;;;;;;2.63;1.10;;;24.10;99.90;;;;;;5050116;28;20029;-20
2023/09/23 10:24:34;;;;;;;2.23;1.40;;;24.10;99.90;;;;;;5044048;28;20037;-19
2023/09/23 10:27:05;;;;;;;2.10;1.10;;;24.00;99.90;;;;;;5048742;28;20036;-20
2023/09/23 10:29:47;;;;;;;2.63;1.38;;;24.20;99.90;;;;;;5039042;28;20068;-19
2023/09/23 10:32:17;;;;;;;2.50;1.38;;;24.30;99.90;;;;;;5046159;28;20484;-19
2023/09/23 10:34:47;;;;;;;3.03;1.40;;;24.40;99.90;;;;;;5036125;28;20443;-19
2023/09/23 10:37:32;;;;;;;2.53;1.35;;;24.40;99.90;;;;;;5041533;28;20238;-19
2023/09/23 10:40:09;;;;;;;2.63;1.20;;;24.40;99.90;;;;;;5026434;28;20074;-19
2023/09/23 10:42:35;;;;;;;1.80;1.60;;;24.50;99.90;;;;;;5052130;28;20070;-19
2023/09/23 10:45:01;;;;;;;1.90;1.13;;;24.70;99.90;;;;;;5054320;28;20020;-19
2023/09/23 10:47:28;;;;;;;1.30;0.90;;;24.90;99.90;;;;;;5049964;28;20403;-19
2023/09/23 10:49:54;;;;;;;2.22;1.10;;;25.00;99.90;;;;;;5053201;28;20037;-19
2023/09/23 10:52:21;;;;;;;2.92;1.25;;;25.00;99.90;;;;;;5036368;28;20032;-19
2023/09/23 10:54:48;;;;;;;2.05;1.10;;;24.90;99.90;;;;;;5004895;28;20033;-19
2023/09/23 10:57:14;;;;;;;2.25;1.20;;;24.80;99.90;;;;;;5044040;28;20479;-20
2023/09/23 10:59:43;;;;;;;1.87;1.00;;;24.70;99.90;;;;;;5037000;28;20112;-20
2023/09/23 11:02:11;;;;;;;2.17;1.20;;;24.60;99.90;;;;;;5049365;28;20433;-20
2023/09/23 11:04:37;;;;;;;1.70;1.15;;;24.70;99.90;;;;;;5048012;28;20135;-20
2023/09/23 11:07:02;;;;;;;1.70;1.27;;;24.70;99.90;;;;;;5013616;28;20531;-20
2023/09/23 11:09:28;;;;;;;2.77;1.20;;;24.80;99.90;;;;;;5027983;28;20059;-20
2023/09/23 11:11:54;;;;;;;3.03;1.48;;;24.90;99.90;;;;;;5020885;28;20027;-20
2023/09/23 11:14:23;;;;;;;2.08;1.33;;;25.00;99.90;;;;;;5034178;28;20273;-20
2023/09/23 11:16:51;;;;;;;2.80;1.40;;;25.10;99.90;;;;;;5039069;28;20056;-20
2023/09/23 11:19:21;;;;;;;2.20;1.20;;;25.20;99.90;;;;;;5045864;28;20651;-20
2023/09/23 11:21:47;;;;;;;2.40;1.10;;;25.10;99.90;;;;;;5051588;28;20032;-20
2023/09/23 11:24:13;;;;;;;2.25;1.10;;;25.00;99.90;;;;;;5016297;28;20266;-20
2023/09/23 11:26:40;;;;;;;2.13;1.23;;;24.90;99.90;;;;;;5023322;28;20435;-20
2023/09/23 11:29:06;;;;;;;1.70;1.20;;;24.90;99.90;;;;;;5039675;28;20282;-20
2023/09/23 11:31:32;;;;;;;2.60;1.15;;;24.80;99.90;;;;;;5037882;28;20088;-20
2023/09/23 11:33:58;;;;;;;1.40;1.10;;;24.70;99.90;;;;;;5030850;28;20044;-20
2023/09/23 11:36:24;;;;;;;2.07;1.20;;;24.70;99.90;;;;;;5045393;28;20222;-20
2023/09/23 11:38:49;;;;;;;3.55;1.17;;;24.60;99.90;;;;;;5029692;28;20028;-21
2023/09/23 11:41:16;;;;;;;2.03;0.90;;;24.60;99.90;;;;;;5002151;28;21366;-20
2023/09/23 11:43:42;;;;;;;1.83;1.10;;;24.50;99.90;;;;;;5022015;28;20115;-20
2023/09/23 11:46:14;;;;;;;1.70;1.17;;;24.50;99.90;;;;;;5033081;28;21553;-20
2023/09/23 11:48:41;;;;;;;1.98;1.20;;;24.40;99.90;;;;;;5034887;28;20021;-20
2023/09/23 11:51:07;;;;;;;2.08;1.30;;;24.50;99.90;;;;;;5048126;28;20043;-20
2023/09/23 11:53:35;;;;;;;2.90;1.37;;;24.70;99.90;;;;;;5035983;28;20032;-20
2023/09/23 11:56:01;;;;;;;2.13;1.20;;;25.00;99.90;;;;;;5023242;28;20020;-20
2023/09/23 11:58:28;;;;;;;3.08;1.60;;;25.30;99.90;;;;;;5021001;28;20055;-20
2023/09/23 12:00:56;;;;;;;2.05;1.50;;;26.20;99.90;;;;;;5034109;28;20032;-20
2023/09/23 12:03:22;;;;;;;2.73;1.20;;;25.80;99.90;;;;;;5028812;28;20083;-21
2023/09/23 12:05:50;;;;;;;1.90;1.50;;;26.10;99.90;;;;;;5041304;28;20152;-21
2023/09/23 12:08:15;;;;;;;3.05;1.50;;;26.30;99.90;;;;;;5040237;28;20115;-19
2023/09/23 12:10:41;;;;;;;1.87;1.20;;;26.60;99.90;;;;;;5032329;28;20094;-19
2023/09/23 12:13:07;;;;;;;2.40;1.50;;;27.00;99.90;;;;;;5012098;28;20028;-19
2023/09/23 12:15:34;;;;;;;1.48;1.30;;;27.20;99.90;;;;;;5040701;28;20036;-19
2023/09/23 12:18:00;;;;;;;2.77;1.60;;;27.50;99.90;;;;;;5033457;28;20021;-19
2023/09/23 12:20:26;;;;;;;2.95;1.60;;;27.70;99.90;;;;;;5042226;28;20108;-19
2023/09/23 12:22:52;;;;;;;2.03;1.50;;;27.80;99.90;;;;;;5030160;28;20032;-19
2023/09/23 12:25:18;;;;;;;2.53;1.50;;;27.90;99.90;;;;;;5037563;28;20032;-19
2023/09/23 12:27:44;;;;;;;1.77;1.20;;;27.90;99.90;;;;;;5022523;28;20121;-19
2023/09/23 12:30:10;;;;;;;1.85;1.30;;;27.80;99.90;;;;;;5023565;22;20055;-17
2023/09/23 12:32:36;;;;;;;3.47;1.27;;;27.70;99.90;;;;;;4936028;28;20077;-18
2023/09/23 12:35:02;;;;;;;2.08;1.10;;;27.60;99.00;;;;;;4947814;28;20035;-19
2023/09/23 12:37:30;;;;;;;2.23;1.10;;;27.40;98.90;;;;;;4931060;28;20088;-19
2023/09/23 12:39:56;;;;;;;1.67;0.88;;;27.20;98.20;;;;;;4938312;28;20019;-17
2023/09/23 12:42:22;;;;;;;1.65;1.08;;;26.90;97.30;;;;;;4941564;28;20065;-19
2023/09/23 12:44:48;;;;;;;1.07;0.87;;;26.50;96.60;;;;;;4937116;28;20039;-17
2023/09/23 12:47:14;;;;;;;2.38;1.05;;;26.20;96.40;;;;;;4944263;28;20100;-20
2023/09/23 12:49:40;;;;;;;2.55;1.10;;;25.80;96.50;;;;;;4943059;28;20066;-17